Time,TemperatureF,DewpointF,PressureIn,WindDirection,WindDirectionDegrees,WindSpeedMPH,WindSpeedGustMPH,Humidity,HourlyPrecipIn,Conditions,Clouds,dailyrainin,SoftwareType,DateUTC
2013-03-18 00:00:00,37.1,29.5,30.28,NNE,20,0.0,7.6,74,0.00,,OVC110,0.00,VWS V14.00,2013-03-18 04:00:00,
2013-03-18 00:20:00,36.0,28.0,30.29,NNE,18,0.0,8.3,72,0.00,,OVC110,0.00,VWS V14.00,2013-03-18 04:20:00,
2013-03-18 00:40:00,36.0,27.9,30.29,NE,55,0.0,7.5,72,0.00,,OVC150,0.00,VWS V14.00,2013-03-18 04:40:00,
2013-03-18 01:00:00,36.4,28.0,30.30,NE,52,0.0,6.8,71,0.00,,OVC150,0.00,VWS V14.00,2013-03-18 05:00:00,
2013-03-18 01:20:00,35.7,27.9,30.30,NE,52,0.0,0.0,73,0.00,,OVC150,0.00,VWS V14.00,2013-03-18 05:20:00,
2013-03-18 01:40:00,36.0,27.9,30.31,ENE,60,4.5,10.4,72,0.00,,OVC100,0.00,VWS V14.00,2013-03-18 05:40:00,
2013-03-18 02:00:00,35.2,26.3,30.31,ENE,60,0.0,11.1,70,0.00,,OVC100,0.00,VWS V14.00,2013-03-18 06:00:00,
2013-03-18 02:20:00,35.9,26.5,30.31,ENE,65,6.5,9.0,68,0.00,,OVC100,0.00,VWS V14.00,2013-03-18 06:20:00,
2013-03-18 02:40:00,35.6,26.2,30.30,NE,45,0.0,7.5,68,0.00,,OVC110,0.00,VWS V14.00,2013-03-18 06:40:00,
2013-03-18 03:00:00,36.0,26.8,30.30,NE,45,0.0,4.6,69,0.00,,OVC110,0.00,VWS V14.00,2013-03-18 07:00:00,
2013-03-18 03:20:00,36.1,26.8,30.30,NE,42,0.0,12.2,69,0.00,,OVC110,0.00,VWS V14.00,2013-03-18 07:20:00,
2013-03-18 03:40:00,35.8,26.4,30.30,East,79,7.0,9.3,68,0.00,,OVC150,0.00,VWS V14.00,2013-03-18 07:40:00,
2013-03-18 04:00:00,35.4,26.3,30.29,East,98,0.0,8.9,69,0.00,,OVC150,0.00,VWS V14.00,2013-03-18 08:00:00,
2013-03-18 04:20:00,35.3,26.8,30.29,NNE,32,0.0,9.6,71,0.00,,OVC150,0.00,VWS V14.00,2013-03-18 08:20:00,
2013-03-18 04:40:00,33.8,25.6,30.30,NE,38,3.4,9.2,72,0.00,,OVC100,0.00,VWS V14.00,2013-03-18 08:40:00,
2013-03-18 05:00:00,33.7,25.4,30.30,ENE,58,0.0,11.7,71,0.01,,OVC100,0.01,VWS V14.00,2013-03-18 09:00:00,
2013-03-18 05:20:00,35.9,26.7,30.31,ENE,63,0.0,9.6,69,0.01,,OVC100,0.01,VWS V14.00,2013-03-18 09:20:00,
2013-03-18 05:40:00,35.1,25.4,30.31,East,90,0.0,9.9,67,0.00,,OVC090,0.01,VWS V14.00,2013-03-18 09:40:00,
2013-03-18 06:00:00,35.1,24.7,30.32,ENE,72,12.9,12.9,66,0.00,,OVC090,0.01,VWS V14.00,2013-03-18 10:00:00,
2013-03-18 06:20:00,35.1,24.8,30.33,ENE,77,0.0,12.9,66,0.00,,OVC090,0.01,VWS V14.00,2013-03-18 10:20:00,
2013-03-18 06:40:00,34.9,24.4,30.34,North,11,0.0,11.2,65,0.00,,OVC075,0.01,VWS V14.00,2013-03-18 10:40:00,
2013-03-18 07:00:00,34.4,24.6,30.34,NNE,28,0.0,9.2,67,0.00,,OVC075,0.01,VWS V14.00,2013-03-18 11:00:00,
2013-03-18 07:20:00,34.2,23.9,30.34,ENE,70,0.0,8.3,66,0.00,,OVC075,0.01,VWS V14.00,2013-03-18 11:20:00,
2013-03-18 07:40:00,34.7,24.5,30.34,NNE,22,0.0,9.3,66,0.00,,OVC060,0.01,VWS V14.00,2013-03-18 11:40:00,
2013-03-18 08:00:00,33.2,23.3,30.33,ESE,122,0.0,12.1,67,0.00,,OVC060,0.01,VWS V14.00,2013-03-18 12:00:00,
2013-03-18 08:20:00,35.8,26.8,30.34,NE,38,0.0,14.6,69,0.00,,OVC060,0.01,VWS V14.00,2013-03-18 12:20:00,
2013-03-18 08:40:00,35.0,27.0,30.33,ESE,107,0.0,10.2,72,0.00,,OVC060,0.01,VWS V14.00,2013-03-18 12:40:00,
2013-03-18 09:00:00,33.5,26.7,30.32,East,83,0.0,13.0,76,0.00,,OVC060,0.01,VWS V14.00,2013-03-18 13:00:00,
2013-03-18 09:20:00,34.7,28.5,30.32,East,94,0.0,15.5,78,0.00,,OVC045,0.01,VWS V14.00,2013-03-18 13:20:00,
2013-03-18 09:40:00,35.1,29.1,30.31,East,86,0.0,9.9,78,0.00,,OVC085,0.01,VWS V14.00,2013-03-18 13:40:00,
2013-03-18 10:00:00,35.4,29.6,30.30,ENE,68,0.0,10.4,79,0.00,,OVC085,0.01,VWS V14.00,2013-03-18 14:00:00,
2013-03-18 10:20:00,35.7,29.9,30.29,SE,142,0.0,9.3,79,0.00,,OVC085,0.01,VWS V14.00,2013-03-18 14:20:00,
2013-03-18 10:40:00,35.8,29.7,30.28,ESE,107,0.0,6.6,78,0.00,,OVC085,0.01,VWS V14.00,2013-03-18 14:40:00,
2013-03-18 11:00:00,36.5,29.9,30.28,NE,46,0.0,9.9,77,0.00,,OVC085,0.01,VWS V14.00,2013-03-18 15:00:00,
2013-03-18 11:20:00,36.2,29.7,30.28,NE,46,0.0,0.0,77,0.00,,OVC085,0.01,VWS V14.00,2013-03-18 15:20:00,
2013-03-18 11:40:00,37.2,30.9,30.26,ESE,114,0.0,10.6,78,0.00,,OVC050,0.01,VWS V14.00,2013-03-18 15:40:00,
2013-03-18 12:00:00,37.4,31.4,30.24,East,101,0.0,12.0,79,0.00,,OVC050,0.01,VWS V14.00,2013-03-18 16:00:00,
2013-03-18 12:20:00,38.6,32.4,30.22,ENE,58,0.0,13.9,78,0.00,,OVC050,0.01,VWS V14.00,2013-03-18 16:20:00,
2013-03-18 12:40:00,37.4,31.2,30.21,ENE,62,0.0,8.8,78,0.00,,OVC038,0.01,VWS V14.00,2013-03-18 16:40:00,
2013-03-18 13:00:00,38.4,32.7,30.21,ESE,111,0.0,9.1,80,0.00,,OVC038,0.01,VWS V14.00,2013-03-18 17:00:00,
2013-03-18 13:20:00,38.1,32.7,30.20,SE,124,0.0,12.5,81,0.00,,OVC038,0.01,VWS V14.00,2013-03-18 17:20:00,
2013-03-18 13:40:00,38.2,32.9,30.20,NE,51,0.0,11.8,81,0.00,,OVC024,0.01,VWS V14.00,2013-03-18 17:40:00,
2013-03-18 14:00:00,39.1,34.4,30.18,ENE,62,0.0,14.4,83,0.00,,OVC024,0.01,VWS V14.00,2013-03-18 18:00:00,
2013-03-18 14:20:00,38.1,35.2,30.17,ENE,58,0.0,13.1,89,0.00,,OVC024,0.01,VWS V14.00,2013-03-18 18:20:00,
2013-03-18 14:40:00,38.0,36.5,30.14,ENE,65,0.0,13.1,94,0.00,,OVC024,0.01,VWS V14.00,2013-03-18 18:40:00,
2013-03-18 15:00:00,37.6,36.7,30.15,ENE,65,0.0,0.0,97,0.00,,OVC024,0.01,VWS V14.00,2013-03-18 19:00:00,
2013-03-18 15:20:00,37.6,37.3,30.12,East,84,0.0,10.1,99,0.00,,OVC024,0.01,VWS V14.00,2013-03-18 19:20:00,
2013-03-18 15:40:00,37.1,37.1,30.10,NE,55,0.0,12.2,100,0.00,,,0.01,VWS V14.00,2013-03-18 19:40:00,
2013-03-18 16:00:00,37.1,37.1,30.08,ENE,66,0.0,13.0,100,0.01,,,0.02,VWS V14.00,2013-03-18 20:00:00,
2013-03-18 16:20:00,36.4,36.4,30.08,NE,51,0.0,6.8,100,0.02,,,0.03,VWS V14.00,2013-03-18 20:20:00,
2013-03-18 16:40:00,36.8,36.8,30.08,NNE,24,0.0,6.0,100,0.01,,,0.03,VWS V14.00,2013-03-18 20:40:00,
2013-03-18 17:00:00,36.8,36.8,30.05,SE,125,0.0,11.4,100,0.03,,,0.05,VWS V14.00,2013-03-18 21:00:00,
2013-03-18 17:20:00,35.4,35.4,30.05,ENE,69,0.0,7.8,100,0.04,,,0.07,VWS V14.00,2013-03-18 21:20:00,
2013-03-18 17:40:00,36.8,36.8,30.06,ENE,63,0.0,6.6,100,0.05,,-RA,0.10,VWS V14.00,2013-03-18 21:40:00,
2013-03-18 18:00:00,36.9,36.9,30.06,ENE,63,0.0,0.0,100,0.05,,-RA,0.12,VWS V14.00,2013-03-18 22:00:00,
2013-03-18 18:20:00,34.9,34.9,30.07,WNW,301,0.0,3.4,100,0.07,,-RA,0.16,VWS V14.00,2013-03-18 22:20:00,
2013-03-18 18:40:00,35.0,35.0,30.04,WNW,301,0.0,2.3,100,0.09,,,0.21,VWS V14.00,2013-03-18 22:40:00,
2013-03-18 19:00:00,37.3,37.3,30.02,WNW,301,0.0,0.0,100,0.08,,,0.23,VWS V14.00,2013-03-18 23:00:00,
2013-03-18 19:20:00,35.8,35.8,30.02,WNW,301,0.0,0.0,100,0.08,,-RA,0.25,VWS V14.00,2013-03-18 23:20:00,
2013-03-18 19:40:00,36.1,36.1,30.01,WNW,301,0.0,0.0,100,0.06,,-RA,0.26,VWS V14.00,2013-03-18 23:40:00,
2013-03-18 20:00:00,36.6,36.6,29.99,NNE,24,0.0,7.8,100,0.07,,-RA,0.29,VWS V14.00,2013-03-19 00:00:00,
2013-03-18 20:20:00,37.9,37.9,29.96,NNE,27,0.0,6.8,100,0.08,,-RA,0.32,VWS V14.00,2013-03-19 00:20:00,
2013-03-18 20:40:00,35.7,35.7,29.97,NE,44,0.0,4.6,100,0.07,,-RA,0.34,VWS V14.00,2013-03-19 00:40:00,
2013-03-18 21:00:00,36.4,36.4,29.97,NNW,328,0.0,2.2,100,0.07,,-RA,0.36,VWS V14.00,2013-03-19 01:00:00,
2013-03-18 21:20:00,36.3,36.3,29.97,NNW,328,0.0,0.0,100,0.05,,-RA,0.36,VWS V14.00,2013-03-19 01:20:00,
2013-03-18 21:40:00,35.7,35.7,29.96,NNW,328,0.0,0.0,100,0.05,,-RA,0.38,VWS V14.00,2013-03-19 01:40:00,
2013-03-18 22:00:00,36.2,36.2,29.95,WNW,301,0.0,3.0,100,0.05,,-RA,0.39,VWS V14.00,2013-03-19 02:00:00,
2013-03-18 22:20:00,34.9,34.9,29.94,WNW,301,0.0,0.0,100,0.04,,-RA,0.40,VWS V14.00,2013-03-19 02:20:00,
2013-03-18 22:40:00,35.1,35.1,29.92,NW,316,0.0,0.0,100,0.04,,-RA,0.41,VWS V14.00,2013-03-19 02:40:00,
2013-03-18 23:00:00,35.4,35.4,29.91,NW,316,0.0,0.0,100,0.03,,-RA,0.41,VWS V14.00,2013-03-19 03:00:00,
2013-03-18 23:20:00,36.2,36.2,29.89,NW,316,0.0,0.0,100,0.02,,OVC011,0.41,VWS V14.00,2013-03-19 03:20:00,
2013-03-18 23:40:00,35.6,35.6,29.89,NW,316,0.0,0.0,100,0.01,,,0.41,VWS V14.00,2013-03-19 03:40:00,